createdAt,value
2019-05-21T00:01:49.415Z,4.60
2019-05-21T00:04:27.892Z,4.90
2019-05-21T00:06:49.029Z,5.10
2019-05-21T00:09:18.006Z,5.00
2019-05-21T00:11:46.899Z,5.30
2019-05-21T00:14:15.792Z,5.30
2019-05-21T00:16:44.763Z,5.93
2019-05-21T00:19:13.669Z,5.50
2019-05-21T00:21:42.576Z,5.70
2019-05-21T00:24:11.488Z,5.53
2019-05-21T00:26:40.448Z,6.07
2019-05-21T00:29:27.446Z,6.40
2019-05-21T00:32:16.014Z,6.93
2019-05-21T00:35:03.412Z,6.93
2019-05-21T00:37:50.474Z,5.83
2019-05-21T00:40:38.667Z,6.30
2019-05-21T00:43:07.836Z,5.70
2019-05-21T00:45:36.728Z,6.20
2019-05-21T00:48:06.756Z,6.70
2019-05-21T00:50:35.672Z,6.60
2019-05-21T00:53:04.557Z,6.90
2019-05-21T00:55:33.459Z,6.27
2019-05-21T00:58:02.382Z,6.70
2019-05-21T01:00:31.432Z,6.50
2019-05-21T01:03:00.322Z,6.87
2019-05-21T01:05:29.369Z,6.93
2019-05-21T01:07:58.332Z,7.37
2019-05-21T01:10:27.218Z,7.97
2019-05-21T01:12:56.150Z,8.33
2019-05-21T01:15:25.055Z,8.03
2019-05-21T01:17:54.998Z,8.93
2019-05-21T01:20:23.898Z,8.77
2019-05-21T01:22:52.813Z,7.83
2019-05-21T01:25:21.705Z,7.60
2019-05-21T01:27:52.075Z,7.40
2019-05-21T01:30:21.067Z,7.07
2019-05-21T01:32:49.959Z,7.93
2019-05-21T01:35:18.870Z,6.87
2019-05-21T01:37:47.955Z,7.07
2019-05-21T01:40:16.851Z,6.93
2019-05-21T01:42:45.741Z,5.80
2019-05-21T01:45:14.723Z,6.30
2019-05-21T01:47:43.615Z,6.30
2019-05-21T01:50:12.584Z,6.03
2019-05-21T01:52:41.469Z,5.70
2019-05-21T01:55:10.467Z,5.20
2019-05-21T01:57:39.360Z,6.00
2019-05-21T02:00:08.413Z,5.13
2019-05-21T02:02:37.396Z,6.00
2019-05-21T02:05:06.357Z,7.07
2019-05-21T02:07:35.532Z,6.30
2019-05-21T02:10:05.979Z,6.33
2019-05-21T02:12:34.897Z,6.40
2019-05-21T02:15:04.502Z,6.07
2019-05-21T02:17:33.466Z,6.83
2019-05-21T02:20:02.362Z,7.03
2019-05-21T02:22:31.274Z,7.07
2019-05-21T02:25:00.162Z,8.43
2019-05-21T02:27:29.080Z,8.60
2019-05-21T02:29:58.061Z,9.03
2019-05-21T02:32:26.965Z,8.93
2019-05-21T02:34:55.857Z,9.00
2019-05-21T02:37:24.779Z,9.23
2019-05-21T02:39:53.667Z,9.80
2019-05-21T02:42:22.643Z,8.90
2019-05-21T02:44:54.153Z,9.90
2019-05-21T02:47:23.238Z,8.80
2019-05-21T02:49:52.192Z,8.87
2019-05-21T02:52:21.084Z,9.00
2019-05-21T02:54:49.980Z,8.70
2019-05-21T02:57:19.027Z,9.20
2019-05-21T02:59:49.566Z,9.37
2019-05-21T03:02:22.608Z,9.53
2019-05-21T03:04:51.564Z,9.33
2019-05-21T03:07:20.456Z,9.93
2019-05-21T03:09:49.441Z,9.53
2019-05-21T03:12:18.668Z,10.90
2019-05-21T03:14:47.641Z,10.10
2019-05-21T03:17:16.553Z,10.03
2019-05-21T03:19:45.450Z,10.03
2019-05-21T03:22:14.345Z,11.40
2019-05-21T03:24:43.260Z,9.93
2019-05-21T03:27:12.161Z,8.87
2019-05-21T03:29:41.053Z,9.20
2019-05-21T03:32:09.965Z,9.00
2019-05-21T03:34:38.948Z,8.50
2019-05-21T03:37:07.887Z,9.27
2019-05-21T03:39:36.804Z,8.13
2019-05-21T03:42:05.694Z,8.07
2019-05-21T03:44:34.655Z,8.40
2019-05-21T03:47:03.564Z,6.97
2019-05-21T03:49:32.527Z,7.30
2019-05-21T03:52:01.417Z,8.13
2019-05-21T03:54:30.326Z,6.80
2019-05-21T03:56:59.217Z,7.20
2019-05-21T03:59:28.103Z,5.90
2019-05-21T04:01:57.023Z,6.50
2019-05-21T04:04:25.900Z,6.20
2019-05-21T04:06:54.809Z,5.80
2019-05-21T04:09:23.724Z,5.87
2019-05-21T04:11:53.403Z,6.60
2019-05-21T04:14:33.762Z,6.10
2019-05-21T04:17:07.249Z,6.50
2019-05-21T04:19:43.986Z,5.80
2019-05-21T04:22:14.421Z,5.90
2019-05-21T04:24:44.973Z,7.23
2019-05-21T04:27:14.035Z,7.93
2019-05-21T04:29:43.019Z,8.40
2019-05-21T04:32:12.001Z,8.10
2019-05-21T04:34:40.956Z,8.53
2019-05-21T04:37:11.864Z,8.80
2019-05-21T04:39:40.502Z,8.27
2019-05-21T04:42:09.630Z,8.50
2019-05-21T04:44:38.518Z,7.53
2019-05-21T04:47:07.434Z,7.97
2019-05-21T04:49:36.328Z,8.03
2019-05-21T04:52:05.208Z,8.73
2019-05-21T04:54:34.135Z,9.47
2019-05-21T04:57:03.035Z,8.70
2019-05-21T04:59:31.922Z,9.73
2019-05-21T05:02:00.847Z,9.60
2019-05-21T05:04:29.728Z,9.37
2019-05-21T05:06:58.634Z,9.00
2019-05-21T05:09:27.545Z,9.07
2019-05-21T05:11:56.467Z,9.20
2019-05-21T05:14:25.363Z,8.77
2019-05-21T05:16:54.261Z,9.20
2019-05-21T05:19:23.253Z,9.87
2019-05-21T05:21:52.138Z,8.37
2019-05-21T05:24:21.056Z,9.40
2019-05-21T05:26:49.987Z,8.43
2019-05-21T05:29:18.880Z,8.30
2019-05-21T05:31:47.778Z,8.53
2019-05-21T05:34:16.714Z,9.30
2019-05-21T05:36:45.604Z,9.67
2019-05-21T05:39:14.641Z,10.33
2019-05-21T05:41:43.566Z,10.30
2019-05-21T05:44:12.458Z,10.33
2019-05-21T05:46:41.359Z,10.43
2019-05-21T05:49:30.215Z,11.23
2019-05-21T05:51:59.106Z,9.70
2019-05-21T05:54:28.005Z,10.20
2019-05-21T05:56:56.942Z,10.10
2019-05-21T05:59:26.008Z,9.90
2019-05-21T06:01:54.899Z,10.83
2019-05-21T06:04:23.826Z,11.63
2019-05-21T06:06:52.717Z,10.57
2019-05-21T06:09:21.629Z,11.50
2019-05-21T06:11:50.608Z,11.97
2019-05-21T06:14:19.511Z,14.17
2019-05-21T06:16:48.420Z,12.67
2019-05-21T06:19:17.427Z,11.50
2019-05-21T06:21:46.321Z,11.43
2019-05-21T06:24:15.252Z,11.07
2019-05-21T06:26:45.351Z,11.03
2019-05-21T06:29:14.237Z,10.77
2019-05-21T06:31:43.130Z,11.53
2019-05-21T06:34:12.062Z,12.30
2019-05-21T06:36:40.957Z,11.57
2019-05-21T06:39:09.918Z,11.57
2019-05-21T06:41:38.832Z,12.47
2019-05-21T06:44:07.797Z,11.93
2019-05-21T06:46:36.713Z,12.33
2019-05-21T06:49:05.713Z,11.97
2019-05-21T06:51:34.612Z,13.27
2019-05-21T06:54:03.686Z,12.53
2019-05-21T06:56:32.746Z,11.80
2019-05-21T06:59:01.731Z,13.83
2019-05-21T07:01:30.631Z,12.70
2019-05-21T07:03:59.643Z,13.23
2019-05-21T07:06:28.602Z,14.23
2019-05-21T07:08:57.502Z,12.80
2019-05-21T07:11:26.413Z,13.67
2019-05-21T07:13:55.377Z,13.80
2019-05-21T07:16:24.375Z,12.77
2019-05-21T07:18:53.365Z,13.00
2019-05-21T07:21:22.262Z,14.07
2019-05-21T07:23:51.154Z,13.97
2019-05-21T07:26:20.187Z,14.10
2019-05-21T07:28:49.272Z,14.57
2019-05-21T07:31:18.161Z,13.63
2019-05-21T07:33:47.135Z,13.87
2019-05-21T07:36:16.068Z,12.00
2019-05-21T07:38:53.383Z,12.20
2019-05-21T07:41:15.621Z,11.83
2019-05-21T07:43:44.639Z,12.73
2019-05-21T07:46:14.344Z,11.80
2019-05-21T07:48:43.322Z,11.33
2019-05-21T07:51:12.234Z,11.63
2019-05-21T07:53:41.327Z,11.33
2019-05-21T07:56:10.218Z,10.50
2019-05-21T07:58:39.127Z,10.70
2019-05-21T08:01:08.181Z,10.90
2019-05-21T08:03:37.099Z,9.53
2019-05-21T08:06:06.037Z,8.60
2019-05-21T08:08:35.083Z,8.70
2019-05-21T08:11:04.038Z,8.47
2019-05-21T08:13:32.938Z,7.73
2019-05-21T08:16:01.881Z,8.47
2019-05-21T08:18:30.791Z,7.60
2019-05-21T08:20:59.699Z,6.70
2019-05-21T08:23:28.621Z,7.30
2019-05-21T08:25:57.513Z,7.50
2019-05-21T08:28:26.409Z,7.43
2019-05-21T08:30:55.457Z,7.47
2019-05-21T08:33:24.340Z,6.57
2019-05-21T08:35:53.238Z,7.73
2019-05-21T08:38:22.173Z,7.60
2019-05-21T08:40:51.065Z,7.27
2019-05-21T08:43:22.102Z,7.43
2019-05-21T08:45:50.597Z,7.50
2019-05-21T08:48:20.447Z,7.80
2019-05-21T08:50:49.350Z,9.10
2019-05-21T08:53:19.243Z,7.87
2019-05-21T08:55:48.135Z,9.83
2019-05-21T08:58:17.047Z,9.33
2019-05-21T09:00:46.072Z,9.63
2019-05-21T09:03:15.131Z,9.37
2019-05-21T09:05:44.094Z,10.40
2019-05-21T09:08:13.098Z,10.43
2019-05-21T09:10:42.490Z,10.90
2019-05-21T09:13:12.466Z,11.20
2019-05-21T09:15:41.418Z,11.13
2019-05-21T09:18:10.318Z,10.07
2019-05-21T09:20:39.287Z,10.07
2019-05-21T09:23:08.363Z,10.60
2019-05-21T09:25:37.264Z,9.40
2019-05-21T09:28:06.224Z,10.00
2019-05-21T09:30:35.137Z,9.70
2019-05-21T09:33:04.100Z,9.70
2019-05-21T09:35:33.085Z,9.27
2019-05-21T09:38:01.978Z,9.70
2019-05-21T09:40:31.016Z,9.77
2019-05-21T09:42:59.932Z,8.13
2019-05-21T09:45:28.866Z,8.97
2019-05-21T09:47:57.770Z,8.53
2019-05-21T09:50:26.675Z,10.50
2019-05-21T09:52:55.650Z,9.30
2019-05-21T09:55:24.577Z,8.23
2019-05-21T09:58:13.126Z,8.27
2019-05-21T10:00:49.464Z,8.87
2019-05-21T10:03:20.049Z,7.67
2019-05-21T10:05:48.942Z,8.20
2019-05-21T10:08:17.852Z,7.70
2019-05-21T10:10:46.738Z,7.60
2019-05-21T10:13:15.705Z,8.23
2019-05-21T10:15:47.178Z,8.43
2019-05-21T10:18:16.204Z,8.20
2019-05-21T10:20:45.157Z,7.60
2019-05-21T10:23:14.163Z,7.23
2019-05-21T10:25:43.115Z,6.83
2019-05-21T10:28:13.132Z,6.87
2019-05-21T10:30:42.021Z,8.33
2019-05-21T10:33:10.986Z,7.27
2019-05-21T10:35:39.892Z,7.93
2019-05-21T10:38:09.985Z,7.70
2019-05-21T10:40:38.876Z,8.13
2019-05-21T10:43:08.743Z,7.23
2019-05-21T10:45:37.747Z,8.00
2019-05-21T10:48:06.714Z,7.73
2019-05-21T10:50:35.686Z,8.10
2019-05-21T10:53:04.686Z,7.30
2019-05-21T10:55:33.650Z,7.80
2019-05-21T10:58:02.681Z,7.57
2019-05-21T11:00:31.664Z,7.60
2019-05-21T11:03:05.021Z,7.90
2019-05-21T11:05:38.327Z,7.73
2019-05-21T11:08:24.806Z,8.47
2019-05-21T11:10:38.224Z,8.67
2019-05-21T11:13:07.222Z,8.33
2019-05-21T11:15:36.176Z,8.07
2019-05-21T11:18:11.107Z,7.13
2019-05-21T11:20:35.830Z,7.73
2019-05-21T11:23:04.797Z,7.77
2019-05-21T11:25:34.758Z,8.30
2019-05-21T11:28:06.038Z,7.93
2019-05-21T11:30:34.550Z,8.07
2019-05-21T11:33:03.676Z,8.13
2019-05-21T11:35:35.265Z,7.53
2019-05-21T11:38:03.280Z,7.30
2019-05-21T11:40:32.554Z,8.17
2019-05-21T11:43:01.493Z,9.63
2019-05-21T11:45:32.767Z,8.77
2019-05-21T11:48:01.059Z,7.13
2019-05-21T11:50:30.059Z,8.47
2019-05-21T11:52:58.958Z,8.97
2019-05-21T11:55:27.842Z,8.53
2019-05-21T11:57:56.825Z,8.60
2019-05-21T12:00:26.473Z,10.27
2019-05-21T12:02:55.439Z,8.70
2019-05-21T12:05:24.373Z,11.00
2019-05-21T12:07:54.759Z,9.83
2019-05-21T12:10:23.657Z,9.47
2019-05-21T12:12:52.673Z,10.97
2019-05-21T12:15:21.740Z,10.17
2019-05-21T12:17:50.632Z,10.67
2019-05-21T12:20:35.312Z,10.87
2019-05-21T12:22:50.225Z,12.13
2019-05-21T12:25:19.121Z,11.93
2019-05-21T12:27:48.059Z,11.27
2019-05-21T12:30:17.038Z,10.37
2019-05-21T12:32:46.009Z,10.50
2019-05-21T12:35:15.009Z,11.43
2019-05-21T12:37:43.914Z,11.77
2019-05-21T12:40:13.094Z,12.03
2019-05-21T12:42:42.013Z,12.10
2019-05-21T12:45:11.079Z,12.00
2019-05-21T12:47:40.127Z,12.33
2019-05-21T12:50:09.459Z,11.40
2019-05-21T12:52:38.554Z,11.67
2019-05-21T12:55:08.052Z,10.97
2019-05-21T12:57:37.094Z,12.00
2019-05-21T13:00:09.700Z,12.23
2019-05-21T13:02:38.664Z,11.13
2019-05-21T13:05:11.163Z,11.87
2019-05-21T13:07:38.352Z,11.40
2019-05-21T13:10:07.696Z,11.73
2019-05-21T13:12:36.682Z,11.97
2019-05-21T13:15:06.377Z,11.57
2019-05-21T13:17:35.358Z,12.13
2019-05-21T13:20:06.565Z,11.50
2019-05-21T13:22:36.003Z,11.93
2019-05-21T13:25:06.166Z,11.57
2019-05-21T13:27:35.057Z,11.20
2019-05-21T13:30:07.355Z,12.10
2019-05-21T13:32:36.458Z,11.67
2019-05-21T13:35:06.571Z,11.70
2019-05-21T13:37:35.879Z,10.83
2019-05-21T13:40:08.996Z,12.27
2019-05-21T13:42:38.079Z,12.63
2019-05-21T13:45:07.547Z,12.93
2019-05-21T13:47:36.869Z,13.00
2019-05-21T13:50:09.218Z,13.03
2019-05-21T13:52:38.215Z,12.20
2019-05-21T13:55:08.525Z,12.53
2019-05-21T13:57:37.529Z,12.20
2019-05-21T14:00:07.494Z,12.20
2019-05-21T14:02:36.520Z,12.17
2019-05-21T14:05:05.607Z,12.60
2019-05-21T14:07:34.565Z,13.23
2019-05-21T14:10:15.076Z,13.77
2019-05-21T14:12:35.301Z,12.97
2019-05-21T14:15:05.364Z,12.97
2019-05-21T14:17:34.629Z,13.80
2019-05-21T14:20:05.307Z,13.57
2019-05-21T14:22:36.642Z,14.47
2019-05-21T14:25:06.428Z,14.30
2019-05-21T14:27:44.497Z,13.97
2019-05-21T14:30:09.053Z,14.13
2019-05-21T14:32:38.103Z,14.13
2019-05-21T14:35:07.169Z,13.83
2019-05-21T14:37:36.107Z,12.63
2019-05-21T14:40:05.570Z,14.20
2019-05-21T14:42:34.470Z,14.57
2019-05-21T14:45:04.074Z,14.90
2019-05-21T14:47:33.170Z,15.20
2019-05-21T14:50:02.361Z,14.30
2019-05-21T14:52:31.270Z,13.83
2019-05-21T14:55:00.172Z,13.77
2019-05-21T14:57:29.064Z,15.50
2019-05-21T14:59:58.000Z,13.47
2019-05-21T15:02:26.892Z,15.23
2019-05-21T15:04:56.005Z,15.27
2019-05-21T15:07:25.084Z,13.23
2019-05-21T15:09:53.977Z,16.70
2019-05-21T15:12:22.870Z,14.83
2019-05-21T15:14:51.836Z,15.33
2019-05-21T15:17:20.815Z,14.73
2019-05-21T15:19:51.517Z,14.33
2019-05-21T15:22:20.512Z,15.67
2019-05-21T15:24:49.478Z,14.63
2019-05-21T15:27:18.388Z,13.67
2019-05-21T15:29:47.381Z,13.47
2019-05-21T15:32:16.279Z,15.03
2019-05-21T15:34:45.165Z,16.70
2019-05-21T15:37:14.087Z,14.40
2019-05-21T15:39:42.991Z,13.57
2019-05-21T15:42:11.884Z,11.80
2019-05-21T15:44:40.886Z,13.83
2019-05-21T15:47:09.865Z,13.20
2019-05-21T15:49:38.765Z,13.43
2019-05-21T15:52:07.698Z,13.60
2019-05-21T15:54:36.660Z,12.53
2019-05-21T15:57:05.563Z,14.07
2019-05-21T15:59:34.493Z,11.63
2019-05-21T16:02:03.535Z,12.27
2019-05-21T16:04:32.429Z,12.80
2019-05-21T16:07:01.545Z,12.00
2019-05-21T16:09:30.427Z,11.33
2019-05-21T16:11:59.401Z,10.67
2019-05-21T16:14:28.409Z,9.97
2019-05-21T16:16:57.368Z,10.83
2019-05-21T16:19:26.367Z,10.23
2019-05-21T16:21:55.486Z,9.77
2019-05-21T16:24:24.384Z,10.20
2019-05-21T16:26:53.276Z,7.67
2019-05-21T16:29:22.198Z,8.60
2019-05-21T16:31:51.368Z,8.50
2019-05-21T16:34:20.257Z,8.60
2019-05-21T16:36:49.251Z,9.63
2019-05-21T16:39:20.856Z,9.37
2019-05-21T16:41:49.842Z,7.40
2019-05-21T16:44:18.742Z,7.83
2019-05-21T16:46:47.715Z,8.00
2019-05-21T16:49:16.867Z,8.17
2019-05-21T16:51:45.766Z,8.40
2019-05-21T16:54:14.724Z,8.63
2019-05-21T16:56:43.630Z,8.13
2019-05-21T16:59:12.532Z,9.00
2019-05-21T17:01:41.624Z,8.77
2019-05-21T17:04:10.521Z,8.80
2019-05-21T17:06:39.431Z,8.37
2019-05-21T17:09:09.924Z,9.63
2019-05-21T17:11:38.822Z,9.53
2019-05-21T17:14:07.776Z,9.63
2019-05-21T17:16:36.722Z,9.27
2019-05-21T17:19:05.598Z,10.17
2019-05-21T17:21:34.577Z,10.13
2019-05-21T17:24:03.573Z,10.43
2019-05-21T17:26:32.634Z,13.87
2019-05-21T17:29:01.603Z,12.60
2019-05-21T17:31:30.539Z,12.27
2019-05-21T17:34:00.495Z,12.87
2019-05-21T17:36:29.395Z,14.67
2019-05-21T17:38:58.456Z,13.20
2019-05-21T17:41:27.377Z,14.27
2019-05-21T17:43:56.267Z,13.40
2019-05-21T17:46:25.203Z,13.10
2019-05-21T17:48:54.169Z,13.50
2019-05-21T17:51:23.062Z,13.03
2019-05-21T17:53:52.061Z,13.17
2019-05-21T17:56:20.969Z,14.80
2019-05-21T17:58:49.953Z,13.33
2019-05-21T18:01:19.933Z,14.90
2019-05-21T18:03:49.133Z,13.40
2019-05-21T18:06:18.667Z,13.37
2019-05-21T18:08:49.204Z,14.30
2019-05-21T18:11:18.447Z,14.33
2019-05-21T18:13:48.222Z,14.13
2019-05-21T18:16:17.429Z,13.07
2019-05-21T18:18:46.869Z,13.27
2019-05-21T18:21:16.318Z,12.77
2019-05-21T18:23:45.620Z,13.03
2019-05-21T18:26:14.606Z,13.30
2019-05-21T18:28:43.797Z,12.90
2019-05-21T18:31:13.131Z,13.10
2019-05-21T18:33:42.161Z,13.80
2019-05-21T18:36:11.118Z,12.33
2019-05-21T18:38:40.022Z,12.53
2019-05-21T18:41:09.154Z,12.60
2019-05-21T18:43:38.158Z,13.70
2019-05-21T18:46:07.131Z,12.30
2019-05-21T18:48:36.107Z,12.87
2019-05-21T18:51:05.126Z,13.60
2019-05-21T18:53:34.084Z,14.37
2019-05-21T18:56:03.009Z,14.53
2019-05-21T18:58:32.009Z,14.30
2019-05-21T19:01:00.985Z,15.90
2019-05-21T19:03:29.946Z,14.63
2019-05-21T19:05:58.959Z,14.47
2019-05-21T19:08:28.010Z,13.20
2019-05-21T19:10:56.969Z,14.20
2019-05-21T19:13:26.014Z,14.17
2019-05-21T19:15:55.049Z,14.67
2019-05-21T19:18:23.944Z,13.90
2019-05-21T19:20:52.946Z,13.00
2019-05-21T19:23:21.916Z,13.20
2019-05-21T19:25:50.950Z,14.20
2019-05-21T19:28:19.918Z,14.27
2019-05-21T19:30:48.872Z,15.10
2019-05-21T19:33:17.843Z,14.03
2019-05-21T19:35:46.830Z,14.83
2019-05-21T19:38:15.982Z,14.17
2019-05-21T19:40:44.885Z,14.70
2019-05-21T19:43:14.027Z,14.00
2019-05-21T19:45:43.018Z,13.87
2019-05-21T19:48:12.880Z,14.93
2019-05-21T19:50:41.858Z,15.33
2019-05-21T19:53:10.892Z,15.83
2019-05-21T19:55:39.920Z,14.17
2019-05-21T19:58:09.365Z,14.03
2019-05-21T20:00:42.596Z,14.00
2019-05-21T20:03:11.657Z,14.50
2019-05-21T20:05:40.623Z,13.93
2019-05-21T20:08:09.794Z,13.50
2019-05-21T20:10:39.423Z,13.07
2019-05-21T20:13:08.472Z,13.37
2019-05-21T20:15:37.391Z,12.87
2019-05-21T20:18:07.707Z,14.27
2019-05-21T20:20:37.815Z,15.87
2019-05-21T20:23:08.544Z,14.77
2019-05-21T20:25:38.438Z,15.63
2019-05-21T20:28:10.744Z,14.80
2019-05-21T20:30:44.440Z,14.90
2019-05-21T20:33:11.756Z,15.70
2019-05-21T20:35:41.683Z,16.50
2019-05-21T20:38:12.058Z,15.07
2019-05-21T20:40:41.296Z,17.07
2019-05-21T20:43:10.333Z,17.17
2019-05-21T20:45:41.025Z,17.70
2019-05-21T20:48:11.727Z,15.07
2019-05-21T20:50:41.235Z,17.33
2019-05-21T20:53:10.446Z,17.13
2019-05-21T20:55:40.548Z,16.97
2019-05-21T20:58:09.534Z,18.77
2019-05-21T21:00:48.738Z,19.57
2019-05-21T21:03:18.700Z,18.60
2019-05-21T21:05:47.588Z,19.23
2019-05-21T21:08:17.360Z,18.83
2019-05-21T21:10:46.323Z,17.97
2019-05-21T21:13:15.970Z,18.73
2019-05-21T21:15:45.527Z,18.93
2019-05-21T21:18:15.226Z,17.50
2019-05-21T21:20:44.498Z,18.67
2019-05-21T21:23:15.046Z,17.77
2019-05-21T21:25:44.017Z,17.67
2019-05-21T21:28:13.255Z,20.67
2019-05-21T21:30:43.204Z,19.37
2019-05-21T21:33:12.323Z,20.60
2019-05-21T21:35:41.741Z,20.10
2019-05-21T21:38:11.107Z,21.13
2019-05-21T21:40:40.010Z,22.30
2019-05-21T21:43:08.972Z,22.20
2019-05-21T21:45:38.341Z,22.90
2019-05-21T21:48:07.864Z,20.47
2019-05-21T21:50:37.538Z,21.97
2019-05-21T21:53:06.817Z,21.43
2019-05-21T21:55:35.788Z,22.20
2019-05-21T21:58:04.748Z,22.20
2019-05-21T22:00:42.836Z,27.30
2019-05-21T22:13:11.565Z,23.70
2019-05-21T22:15:40.529Z,25.73
2019-05-21T22:18:09.984Z,24.03
2019-05-21T22:20:38.872Z,26.97
2019-05-21T22:23:07.950Z,23.67
2019-05-21T22:25:37.165Z,25.03
2019-05-21T22:28:06.119Z,25.83
2019-05-21T22:30:36.736Z,24.97
2019-05-21T22:33:06.172Z,25.03
2019-05-21T22:35:35.085Z,25.73
2019-05-21T22:38:04.237Z,25.17
2019-05-21T22:40:33.211Z,27.10
2019-05-21T22:43:02.094Z,27.00
2019-05-21T22:45:31.038Z,24.07
2019-05-21T22:47:59.930Z,25.57
2019-05-21T22:50:28.991Z,24.37
2019-05-21T22:52:59.128Z,26.20
2019-05-21T22:55:28.025Z,25.43
2019-05-21T22:57:56.992Z,27.37
2019-05-21T23:00:26.061Z,23.70
2019-05-21T23:02:55.024Z,23.37
2019-05-21T23:05:23.979Z,26.07
2019-05-21T23:07:52.957Z,25.40
2019-05-21T23:10:22.836Z,25.47
2019-05-21T23:12:51.917Z,24.97
2019-05-21T23:15:25.509Z,22.27
2019-05-21T23:18:12.561Z,20.30
2019-05-21T23:20:43.359Z,21.47
2019-05-21T23:23:13.009Z,19.73
2019-05-21T23:25:43.419Z,21.30
2019-05-21T23:28:13.095Z,19.63
2019-05-21T23:30:42.535Z,21.17
2019-05-21T23:33:12.810Z,21.30
2019-05-21T23:35:41.978Z,21.03
2019-05-21T23:38:10.868Z,21.17
2019-05-21T23:40:41.515Z,20.07
2019-05-21T23:43:10.459Z,19.30
2019-05-21T23:45:39.420Z,18.50
2019-05-21T23:48:09.963Z,18.53
2019-05-21T23:50:39.953Z,19.83
2019-05-21T23:53:09.778Z,17.03
2019-05-21T23:55:38.924Z,19.70
2019-05-21T23:58:07.834Z,19.40
